sensor_id;sensor_type;location;lat;lon;timestamp;temperature;humidity
2721;DHT22;1368;49.484;11.112;2022-09-13T00:00:50;15.10;99.90
2721;DHT22;1368;49.484;11.112;2022-09-13T00:03:17;15.10;99.90
2721;DHT22;1368;49.484;11.112;2022-09-13T00:05:42;15.30;99.90
2721;DHT22;1368;49.484;11.112;2022-09-13T00:08:08;14.90;99.90
2721;DHT22;1368;49.484;11.112;2022-09-13T00:10:36;14.80;99.90
2721;DHT22;1368;49.484;11.112;2022-09-13T00:13:03;14.70;99.90
2721;DHT22;1368;49.484;11.112;2022-09-13T00:15:29;14.70;99.90
2721;DHT22;1368;49.484;11.112;2022-09-13T00:17:54;15.20;99.90
2721;DHT22;1368;49.484;11.112;2022-09-13T00:20:20;14.80;99.90
2721;DHT22;1368;49.484;11.112;2022-09-13T00:22:46;14.80;99.90
2721;DHT22;1368;49.484;11.112;2022-09-13T00:25:12;14.80;99.90
2721;DHT22;1368;49.484;11.112;2022-09-13T00:27:37;14.80;99.90
2721;DHT22;1368;49.484;11.112;2022-09-13T00:30:04;15.10;99.90
2721;DHT22;1368;49.484;11.112;2022-09-13T00:32:30;14.80;99.90
2721;DHT22;1368;49.484;11.112;2022-09-13T00:34:56;14.80;99.90
2721;DHT22;1368;49.484;11.112;2022-09-13T00:37:22;15.20;99.90
2721;DHT22;1368;49.484;11.112;2022-09-13T00:39:48;14.80;99.90
2721;DHT22;1368;49.484;11.112;2022-09-13T00:42:14;14.80;99.90
2721;DHT22;1368;49.484;11.112;2022-09-13T00:44:56;14.80;99.90
2721;DHT22;1368;49.484;11.112;2022-09-13T00:47:48;14.70;99.90
2721;DHT22;1368;49.484;11.112;2022-09-13T00:50:17;14.50;99.90
2721;DHT22;1368;49.484;11.112;2022-09-13T00:52:45;14.80;99.90
2721;DHT22;1368;49.484;11.112;2022-09-13T00:55:21;14.70;99.90
2721;DHT22;1368;49.484;11.112;2022-09-13T00:57:51;14.20;99.90
2721;DHT22;1368;49.484;11.112;2022-09-13T01:00:18;14.20;99.90
2721;DHT22;1368;49.484;11.112;2022-09-13T01:02:50;14.30;99.90
2721;DHT22;1368;49.484;11.112;2022-09-13T01:05:20;14.80;99.90
2721;DHT22;1368;49.484;11.112;2022-09-13T01:07:46;14.40;99.90
2721;DHT22;1368;49.484;11.112;2022-09-13T01:10:13;14.70;99.90
2721;DHT22;1368;49.484;11.112;2022-09-13T01:12:56;14.20;99.90
2721;DHT22;1368;49.484;11.112;2022-09-13T01:15:23;14.20;99.90
2721;DHT22;1368;49.484;11.112;2022-09-13T01:17:51;14.30;99.90
2721;DHT22;1368;49.484;11.112;2022-09-13T01:20:18;14.40;99.90
2721;DHT22;1368;49.484;11.112;2022-09-13T01:22:50;14.40;99.90
2721;DHT22;1368;49.484;11.112;2022-09-13T01:28:32;14.40;99.90
2721;DHT22;1368;49.484;11.112;2022-09-13T01:39:14;14.30;99.90
2721;DHT22;1368;49.484;11.112;2022-09-13T01:42:13;14.20;99.90
2721;DHT22;1368;49.484;11.112;2022-09-13T01:45:12;14.10;99.90
2721;DHT22;1368;49.484;11.112;2022-09-13T01:48:00;14.00;99.90
2721;DHT22;1368;49.484;11.112;2022-09-13T01:50:38;13.90;99.90
2721;DHT22;1368;49.484;11.112;2022-09-13T01:56:21;14.00;99.90
2721;DHT22;1368;49.484;11.112;2022-09-13T01:58:47;14.00;99.90
2721;DHT22;1368;49.484;11.112;2022-09-13T02:01:17;14.10;99.90
2721;DHT22;1368;49.484;11.112;2022-09-13T02:04:05;14.10;99.90
2721;DHT22;1368;49.484;11.112;2022-09-13T02:06:41;14.20;99.90
2721;DHT22;1368;49.484;11.112;2022-09-13T02:09:15;14.20;99.90
2721;DHT22;1368;49.484;11.112;2022-09-13T02:11:47;14.10;99.90
2721;DHT22;1368;49.484;11.112;2022-09-13T02:14:17;13.90;99.90
2721;DHT22;1368;49.484;11.112;2022-09-13T02:16:52;13.70;99.90
2721;DHT22;1368;49.484;11.112;2022-09-13T02:19:24;13.30;99.90
2721;DHT22;1368;49.484;11.112;2022-09-13T02:21:55;13.10;99.90
2721;DHT22;1368;49.484;11.112;2022-09-13T02:24:29;13.10;99.90
2721;DHT22;1368;49.484;11.112;2022-09-13T02:27:00;13.20;99.90
2721;DHT22;1368;49.484;11.112;2022-09-13T02:29:30;13.10;99.90
2721;DHT22;1368;49.484;11.112;2022-09-13T02:32:08;13.00;99.90
2721;DHT22;1368;49.484;11.112;2022-09-13T02:34:41;13.10;99.90
2721;DHT22;1368;49.484;11.112;2022-09-13T02:37:08;13.10;99.90
2721;DHT22;1368;49.484;11.112;2022-09-13T02:39:38;13.00;99.90
2721;DHT22;1368;49.484;11.112;2022-09-13T02:42:07;13.00;99.90
2721;DHT22;1368;49.484;11.112;2022-09-13T02:44:44;13.00;99.90
2721;DHT22;1368;49.484;11.112;2022-09-13T02:55:27;13.20;99.90
2721;DHT22;1368;49.484;11.112;2022-09-13T03:00:26;13.40;99.90
2721;DHT22;1368;49.484;11.112;2022-09-13T03:02:54;13.30;99.90
2721;DHT22;1368;49.484;11.112;2022-09-13T03:05:21;13.10;99.90
2721;DHT22;1368;49.484;11.112;2022-09-13T03:07:47;13.10;99.90
2721;DHT22;1368;49.484;11.112;2022-09-13T03:10:14;13.10;99.90
2721;DHT22;1368;49.484;11.112;2022-09-13T03:17:58;13.10;99.90
2721;DHT22;1368;49.484;11.112;2022-09-13T03:23:29;12.70;99.90
2721;DHT22;1368;49.484;11.112;2022-09-13T03:29:03;12.70;99.90
2721;DHT22;1368;49.484;11.112;2022-09-13T03:34:24;13.10;99.90
2721;DHT22;1368;49.484;11.112;2022-09-13T03:36:57;12.90;99.90
2721;DHT22;1368;49.484;11.112;2022-09-13T03:39:34;12.90;99.90
2721;DHT22;1368;49.484;11.112;2022-09-13T03:42:06;13.00;99.90
2721;DHT22;1368;49.484;11.112;2022-09-13T03:44:36;13.00;99.90
2721;DHT22;1368;49.484;11.112;2022-09-13T03:47:03;12.90;99.90
2721;DHT22;1368;49.484;11.112;2022-09-13T03:49:30;12.70;99.90
2721;DHT22;1368;49.484;11.112;2022-09-13T03:51:57;12.80;99.90
2721;DHT22;1368;49.484;11.112;2022-09-13T03:54:26;13.60;99.90
2721;DHT22;1368;49.484;11.112;2022-09-13T03:57:16;13.30;99.90
2721;DHT22;1368;49.484;11.112;2022-09-13T04:02:12;13.80;99.90
2721;DHT22;1368;49.484;11.112;2022-09-13T04:04:39;13.50;99.90
2721;DHT22;1368;49.484;11.112;2022-09-13T04:07:06;13.40;99.90
2721;DHT22;1368;49.484;11.112;2022-09-13T04:09:32;13.30;99.90
2721;DHT22;1368;49.484;11.112;2022-09-13T04:11:58;13.30;99.90
2721;DHT22;1368;49.484;11.112;2022-09-13T04:14:24;13.30;99.90
2721;DHT22;1368;49.484;11.112;2022-09-13T04:16:55;13.40;99.90
2721;DHT22;1368;49.484;11.112;2022-09-13T04:19:22;13.50;99.90
2721;DHT22;1368;49.484;11.112;2022-09-13T04:21:49;13.60;99.90
2721;DHT22;1368;49.484;11.112;2022-09-13T04:24:16;13.70;99.90
2721;DHT22;1368;49.484;11.112;2022-09-13T04:26:43;13.60;99.90
2721;DHT22;1368;49.484;11.112;2022-09-13T04:29:09;13.50;99.90
2721;DHT22;1368;49.484;11.112;2022-09-13T04:31:36;13.50;99.90
2721;DHT22;1368;49.484;11.112;2022-09-13T04:34:02;13.60;99.90
2721;DHT22;1368;49.484;11.112;2022-09-13T04:36:28;13.70;99.90
2721;DHT22;1368;49.484;11.112;2022-09-13T04:38:53;13.60;99.90
2721;DHT22;1368;49.484;11.112;2022-09-13T04:41:19;13.60;99.90
2721;DHT22;1368;49.484;11.112;2022-09-13T04:43:48;13.40;99.90
2721;DHT22;1368;49.484;11.112;2022-09-13T04:46:15;13.40;99.90
2721;DHT22;1368;49.484;11.112;2022-09-13T04:48:40;13.40;99.90
2721;DHT22;1368;49.484;11.112;2022-09-13T04:51:06;13.80;99.90
2721;DHT22;1368;49.484;11.112;2022-09-13T04:53:32;13.50;99.90
2721;DHT22;1368;49.484;11.112;2022-09-13T04:56:03;13.60;99.90
2721;DHT22;1368;49.484;11.112;2022-09-13T04:58:30;13.60;99.90
2721;DHT22;1368;49.484;11.112;2022-09-13T05:01:03;13.70;99.90
2721;DHT22;1368;49.484;11.112;2022-09-13T05:03:30;13.80;99.90
2721;DHT22;1368;49.484;11.112;2022-09-13T05:06:05;13.70;99.90
2721;DHT22;1368;49.484;11.112;2022-09-13T05:08:32;13.80;99.90
2721;DHT22;1368;49.484;11.112;2022-09-13T05:10:57;13.70;99.90
2721;DHT22;1368;49.484;11.112;2022-09-13T05:13:24;13.80;99.90
2721;DHT22;1368;49.484;11.112;2022-09-13T05:15:53;13.80;99.90
2721;DHT22;1368;49.484;11.112;2022-09-13T05:18:19;13.70;99.90
2721;DHT22;1368;49.484;11.112;2022-09-13T05:20:44;13.90;99.90
2721;DHT22;1368;49.484;11.112;2022-09-13T05:23:10;14.00;99.90
2721;DHT22;1368;49.484;11.112;2022-09-13T05:25:35;14.10;99.90
2721;DHT22;1368;49.484;11.112;2022-09-13T05:28:01;14.30;99.90
2721;DHT22;1368;49.484;11.112;2022-09-13T05:30:26;14.30;99.90
2721;DHT22;1368;49.484;11.112;2022-09-13T05:32:52;14.00;99.90
2721;DHT22;1368;49.484;11.112;2022-09-13T05:35:18;14.10;99.90
2721;DHT22;1368;49.484;11.112;2022-09-13T05:37:43;14.20;99.90
2721;DHT22;1368;49.484;11.112;2022-09-13T05:40:09;14.20;99.90
2721;DHT22;1368;49.484;11.112;2022-09-13T05:42:35;14.20;99.90
2721;DHT22;1368;49.484;11.112;2022-09-13T05:45:00;14.20;99.90
2721;DHT22;1368;49.484;11.112;2022-09-13T05:47:26;14.60;99.90
2721;DHT22;1368;49.484;11.112;2022-09-13T05:49:51;15.00;99.90
2721;DHT22;1368;49.484;11.112;2022-09-13T05:52:17;15.40;99.90
2721;DHT22;1368;49.484;11.112;2022-09-13T05:54:42;15.80;99.90
2721;DHT22;1368;49.484;11.112;2022-09-13T05:57:08;16.20;99.90
2721;DHT22;1368;49.484;11.112;2022-09-13T05:59:33;16.40;99.90
2721;DHT22;1368;49.484;11.112;2022-09-13T06:01:59;16.70;99.90
2721;DHT22;1368;49.484;11.112;2022-09-13T06:04:24;17.00;99.90
2721;DHT22;1368;49.484;11.112;2022-09-13T06:06:50;17.20;99.90
2721;DHT22;1368;49.484;11.112;2022-09-13T06:09:15;17.70;99.90
2721;DHT22;1368;49.484;11.112;2022-09-13T06:11:41;18.00;99.90
2721;DHT22;1368;49.484;11.112;2022-09-13T06:14:06;18.20;99.90
2721;DHT22;1368;49.484;11.112;2022-09-13T06:16:32;18.60;99.90
2721;DHT22;1368;49.484;11.112;2022-09-13T06:18:58;18.90;99.90
2721;DHT22;1368;49.484;11.112;2022-09-13T06:21:24;19.40;99.90
2721;DHT22;1368;49.484;11.112;2022-09-13T06:23:51;18.90;99.90
2721;DHT22;1368;49.484;11.112;2022-09-13T06:26:19;18.90;99.90
2721;DHT22;1368;49.484;11.112;2022-09-13T06:28:50;19.00;99.90
2721;DHT22;1368;49.484;11.112;2022-09-13T06:31:18;18.90;99.90
2721;DHT22;1368;49.484;11.112;2022-09-13T06:33:44;18.90;99.90
2721;DHT22;1368;49.484;11.112;2022-09-13T06:36:13;18.90;99.90
2721;DHT22;1368;49.484;11.112;2022-09-13T06:38:39;19.00;99.90
2721;DHT22;1368;49.484;11.112;2022-09-13T06:43:35;19.10;99.90
2721;DHT22;1368;49.484;11.112;2022-09-13T06:46:06;19.40;99.90
2721;DHT22;1368;49.484;11.112;2022-09-13T06:48:34;19.50;99.90
2721;DHT22;1368;49.484;11.112;2022-09-13T06:51:02;19.60;99.90
2721;DHT22;1368;49.484;11.112;2022-09-13T06:53:28;19.60;99.90
2721;DHT22;1368;49.484;11.112;2022-09-13T06:58:32;19.60;99.90
2721;DHT22;1368;49.484;11.112;2022-09-13T07:03:41;20.00;99.90
2721;DHT22;1368;49.484;11.112;2022-09-13T07:06:13;20.10;99.90
2721;DHT22;1368;49.484;11.112;2022-09-13T07:08:40;20.40;99.90
2721;DHT22;1368;49.484;11.112;2022-09-13T07:11:06;20.50;99.90
2721;DHT22;1368;49.484;11.112;2022-09-13T07:13:32;20.60;99.90
2721;DHT22;1368;49.484;11.112;2022-09-13T07:16:06;20.60;99.90
2721;DHT22;1368;49.484;11.112;2022-09-13T07:18:32;20.70;99.90
2721;DHT22;1368;49.484;11.112;2022-09-13T07:21:05;21.10;99.90
2721;DHT22;1368;49.484;11.112;2022-09-13T07:23:32;21.20;99.90
2721;DHT22;1368;49.484;11.112;2022-09-13T07:25:59;21.50;99.90
2721;DHT22;1368;49.484;11.112;2022-09-13T07:28:33;21.80;99.90
2721;DHT22;1368;49.484;11.112;2022-09-13T07:31:10;21.50;99.90
2721;DHT22;1368;49.484;11.112;2022-09-13T07:33:38;21.30;99.90
2721;DHT22;1368;49.484;11.112;2022-09-13T07:36:04;21.80;99.90
2721;DHT22;1368;49.484;11.112;2022-09-13T07:38:41;22.10;99.90
2721;DHT22;1368;49.484;11.112;2022-09-13T07:41:14;21.90;99.90
2721;DHT22;1368;49.484;11.112;2022-09-13T07:43:40;21.70;99.90
2721;DHT22;1368;49.484;11.112;2022-09-13T07:46:08;22.30;99.90
2721;DHT22;1368;49.484;11.112;2022-09-13T07:48:36;22.30;99.90
2721;DHT22;1368;49.484;11.112;2022-09-13T07:51:05;22.80;99.90
2721;DHT22;1368;49.484;11.112;2022-09-13T07:53:31;23.00;99.90
2721;DHT22;1368;49.484;11.112;2022-09-13T07:56:11;23.20;99.90
2721;DHT22;1368;49.484;11.112;2022-09-13T07:58:39;23.60;99.90
2721;DHT22;1368;49.484;11.112;2022-09-13T08:01:10;23.90;99.90
2721;DHT22;1368;49.484;11.112;2022-09-13T08:03:36;23.80;99.90
2721;DHT22;1368;49.484;11.112;2022-09-13T08:06:04;23.50;99.90
2721;DHT22;1368;49.484;11.112;2022-09-13T08:08:30;23.10;99.90
2721;DHT22;1368;49.484;11.112;2022-09-13T08:10:56;23.20;99.90
2721;DHT22;1368;49.484;11.112;2022-09-13T08:13:23;23.40;99.90
2721;DHT22;1368;49.484;11.112;2022-09-13T08:15:48;23.50;99.90
2721;DHT22;1368;49.484;11.112;2022-09-13T08:18:16;24.00;99.90
2721;DHT22;1368;49.484;11.112;2022-09-13T08:20:41;24.30;99.90
2721;DHT22;1368;49.484;11.112;2022-09-13T08:23:08;24.20;99.90
2721;DHT22;1368;49.484;11.112;2022-09-13T08:25:35;24.50;99.90
2721;DHT22;1368;49.484;11.112;2022-09-13T08:28:08;24.60;99.90
2721;DHT22;1368;49.484;11.112;2022-09-13T08:30:36;24.90;99.90
2721;DHT22;1368;49.484;11.112;2022-09-13T08:33:03;25.20;99.90
2721;DHT22;1368;49.484;11.112;2022-09-13T08:35:29;25.80;99.90
2721;DHT22;1368;49.484;11.112;2022-09-13T08:37:55;25.60;99.90
2721;DHT22;1368;49.484;11.112;2022-09-13T08:40:21;25.50;99.70
2721;DHT22;1368;49.484;11.112;2022-09-13T08:45:51;26.10;99.70
2721;DHT22;1368;49.484;11.112;2022-09-13T08:48:25;26.90;98.50
2721;DHT22;1368;49.484;11.112;2022-09-13T08:50:58;27.10;96.50
2721;DHT22;1368;49.484;11.112;2022-09-13T08:53:28;27.00;96.80
2721;DHT22;1368;49.484;11.112;2022-09-13T08:56:26;27.20;97.20
2721;DHT22;1368;49.484;11.112;2022-09-13T09:04:44;27.70;95.80
2721;DHT22;1368;49.484;11.112;2022-09-13T09:07:23;28.00;95.50
2721;DHT22;1368;49.484;11.112;2022-09-13T09:10:00;27.60;95.90
2721;DHT22;1368;49.484;11.112;2022-09-13T09:12:40;27.00;96.30
2721;DHT22;1368;49.484;11.112;2022-09-13T09:15:18;26.50;96.00
2721;DHT22;1368;49.484;11.112;2022-09-13T09:20:35;25.90;97.50
2721;DHT22;1368;49.484;11.112;2022-09-13T09:23:07;25.90;97.20
2721;DHT22;1368;49.484;11.112;2022-09-13T09:25:37;25.40;97.40
2721;DHT22;1368;49.484;11.112;2022-09-13T09:28:15;25.50;98.90
2721;DHT22;1368;49.484;11.112;2022-09-13T09:33:48;26.30;97.30
2721;DHT22;1368;49.484;11.112;2022-09-13T09:36:36;26.30;97.00
2721;DHT22;1368;49.484;11.112;2022-09-13T09:39:04;26.40;97.70
2721;DHT22;1368;49.484;11.112;2022-09-13T09:41:32;26.50;97.50
2721;DHT22;1368;49.484;11.112;2022-09-13T09:44:20;26.30;97.00
2721;DHT22;1368;49.484;11.112;2022-09-13T09:46:55;26.00;97.60
2721;DHT22;1368;49.484;11.112;2022-09-13T09:49:41;25.90;97.30
2721;DHT22;1368;49.484;11.112;2022-09-13T09:52:55;25.70;97.90
2721;DHT22;1368;49.484;11.112;2022-09-13T10:00:29;26.20;98.00
2721;DHT22;1368;49.484;11.112;2022-09-13T10:03:07;26.20;97.90
2721;DHT22;1368;49.484;11.112;2022-09-13T10:05:42;26.10;96.50
2721;DHT22;1368;49.484;11.112;2022-09-13T10:08:24;26.00;96.40
2721;DHT22;1368;49.484;11.112;2022-09-13T10:10:53;25.90;96.50
2721;DHT22;1368;49.484;11.112;2022-09-13T10:13:20;26.00;97.10
2721;DHT22;1368;49.484;11.112;2022-09-13T10:16:04;26.00;96.50
2721;DHT22;1368;49.484;11.112;2022-09-13T10:18:34;25.90;96.40
2721;DHT22;1368;49.484;11.112;2022-09-13T10:21:05;25.90;96.70
2721;DHT22;1368;49.484;11.112;2022-09-13T10:23:35;25.80;97.00
2721;DHT22;1368;49.484;11.112;2022-09-13T10:26:11;25.50;97.80
2721;DHT22;1368;49.484;11.112;2022-09-13T10:28:44;24.90;98.30
2721;DHT22;1368;49.484;11.112;2022-09-13T10:31:14;25.00;98.70
2721;DHT22;1368;49.484;11.112;2022-09-13T10:36:17;24.40;99.10
2721;DHT22;1368;49.484;11.112;2022-09-13T10:38:56;24.40;99.50
2721;DHT22;1368;49.484;11.112;2022-09-13T10:41:25;24.20;99.90
2721;DHT22;1368;49.484;11.112;2022-09-13T10:43:59;24.20;99.90
2721;DHT22;1368;49.484;11.112;2022-09-13T10:46:27;24.50;99.90
2721;DHT22;1368;49.484;11.112;2022-09-13T10:48:54;25.00;99.50
2721;DHT22;1368;49.484;11.112;2022-09-13T10:56:36;25.80;98.20
2721;DHT22;1368;49.484;11.112;2022-09-13T10:59:24;25.90;98.90
2721;DHT22;1368;49.484;11.112;2022-09-13T11:02:05;26.00;97.80
2721;DHT22;1368;49.484;11.112;2022-09-13T11:31:39;28.30;94.70
2721;DHT22;1368;49.484;11.112;2022-09-13T11:48:35;27.60;95.20
2721;DHT22;1368;49.484;11.112;2022-09-13T11:57:32;27.90;94.40
2721;DHT22;1368;49.484;11.112;2022-09-13T12:00:03;27.70;94.40
2721;DHT22;1368;49.484;11.112;2022-09-13T12:05:33;27.00;95.50
2721;DHT22;1368;49.484;11.112;2022-09-13T12:13:21;26.60;96.60
2721;DHT22;1368;49.484;11.112;2022-09-13T12:15:51;26.60;96.90
2721;DHT22;1368;49.484;11.112;2022-09-13T12:18:35;26.70;96.60
2721;DHT22;1368;49.484;11.112;2022-09-13T12:21:11;26.50;96.20
2721;DHT22;1368;49.484;11.112;2022-09-13T12:23:52;26.40;97.20
2721;DHT22;1368;49.484;11.112;2022-09-13T12:26:36;26.10;97.90
2721;DHT22;1368;49.484;11.112;2022-09-13T12:31:46;26.20;98.90
2721;DHT22;1368;49.484;11.112;2022-09-13T12:34:30;26.10;99.70
2721;DHT22;1368;49.484;11.112;2022-09-13T12:50:50;26.20;99.80
2721;DHT22;1368;49.484;11.112;2022-09-13T13:03:57;26.30;99.90
2721;DHT22;1368;49.484;11.112;2022-09-13T13:06:52;26.30;99.90
2721;DHT22;1368;49.484;11.112;2022-09-13T13:11:55;26.60;99.90
2721;DHT22;1368;49.484;11.112;2022-09-13T13:14:43;26.70;99.90
2721;DHT22;1368;49.484;11.112;2022-09-13T13:17:44;26.70;99.90
2721;DHT22;1368;49.484;11.112;2022-09-13T13:20:44;26.70;99.90
2721;DHT22;1368;49.484;11.112;2022-09-13T13:26:04;26.70;99.90
2721;DHT22;1368;49.484;11.112;2022-09-13T13:36:24;27.20;99.90
2721;DHT22;1368;49.484;11.112;2022-09-13T13:38:53;27.40;99.00
2721;DHT22;1368;49.484;11.112;2022-09-13T13:43:58;27.70;98.60
2721;DHT22;1368;49.484;11.112;2022-09-13T13:46:30;27.50;98.20
2721;DHT22;1368;49.484;11.112;2022-09-13T13:57:31;27.90;97.50
2721;DHT22;1368;49.484;11.112;2022-09-13T14:00:21;27.90;98.00
2721;DHT22;1368;49.484;11.112;2022-09-13T14:05:26;27.80;97.40
2721;DHT22;1368;49.484;11.112;2022-09-13T14:19:45;27.40;99.30
2721;DHT22;1368;49.484;11.112;2022-09-13T14:24:41;27.60;99.90
2721;DHT22;1368;49.484;11.112;2022-09-13T14:27:19;27.60;99.70
2721;DHT22;1368;49.484;11.112;2022-09-13T14:29:47;27.40;99.80
2721;DHT22;1368;49.484;11.112;2022-09-13T14:32:20;27.40;99.50
2721;DHT22;1368;49.484;11.112;2022-09-13T14:34:55;27.40;99.70
2721;DHT22;1368;49.484;11.112;2022-09-13T14:37:25;27.40;99.50
2721;DHT22;1368;49.484;11.112;2022-09-13T14:39:55;27.40;99.00
2721;DHT22;1368;49.484;11.112;2022-09-13T14:42:21;27.20;99.80
2721;DHT22;1368;49.484;11.112;2022-09-13T14:44:47;27.20;99.30
2721;DHT22;1368;49.484;11.112;2022-09-13T14:47:18;26.90;99.60
2721;DHT22;1368;49.484;11.112;2022-09-13T14:49:51;26.90;99.90
2721;DHT22;1368;49.484;11.112;2022-09-13T14:52:49;26.90;99.90
2721;DHT22;1368;49.484;11.112;2022-09-13T14:55:19;26.80;99.50
2721;DHT22;1368;49.484;11.112;2022-09-13T14:57:50;26.70;99.70
2721;DHT22;1368;49.484;11.112;2022-09-13T15:00:20;26.70;99.40
2721;DHT22;1368;49.484;11.112;2022-09-13T15:02:55;26.70;99.00
2721;DHT22;1368;49.484;11.112;2022-09-13T15:05:25;26.70;99.30
2721;DHT22;1368;49.484;11.112;2022-09-13T15:07:51;26.70;99.80
2721;DHT22;1368;49.484;11.112;2022-09-13T15:15:40;27.30;99.50
2721;DHT22;1368;49.484;11.112;2022-09-13T15:20:48;27.60;99.70
2721;DHT22;1368;49.484;11.112;2022-09-13T15:23:22;27.60;99.60
2721;DHT22;1368;49.484;11.112;2022-09-13T15:25:58;27.50;99.60
2721;DHT22;1368;49.484;11.112;2022-09-13T15:28:32;27.50;99.60
2721;DHT22;1368;49.484;11.112;2022-09-13T15:31:00;27.30;99.10
2721;DHT22;1368;49.484;11.112;2022-09-13T15:33:31;27.30;99.90
2721;DHT22;1368;49.484;11.112;2022-09-13T15:36:15;27.20;99.90
2721;DHT22;1368;49.484;11.112;2022-09-13T15:41:38;26.80;99.90
2721;DHT22;1368;49.484;11.112;2022-09-13T15:44:07;26.80;99.90
2721;DHT22;1368;49.484;11.112;2022-09-13T15:46:42;26.80;99.90
2721;DHT22;1368;49.484;11.112;2022-09-13T15:49:16;26.80;99.90
2721;DHT22;1368;49.484;11.112;2022-09-13T15:51:43;26.70;99.90
2721;DHT22;1368;49.484;11.112;2022-09-13T15:54:16;26.60;99.90
2721;DHT22;1368;49.484;11.112;2022-09-13T15:56:44;26.50;99.90
2721;DHT22;1368;49.484;11.112;2022-09-13T15:59:14;26.40;99.90
2721;DHT22;1368;49.484;11.112;2022-09-13T16:01:41;26.30;99.90
2721;DHT22;1368;49.484;11.112;2022-09-13T16:04:07;26.20;99.90
2721;DHT22;1368;49.484;11.112;2022-09-13T16:06:33;26.20;99.90
2721;DHT22;1368;49.484;11.112;2022-09-13T16:08:59;26.10;99.90
2721;DHT22;1368;49.484;11.112;2022-09-13T16:11:25;26.00;99.90
2721;DHT22;1368;49.484;11.112;2022-09-13T16:13:50;25.90;99.90
2721;DHT22;1368;49.484;11.112;2022-09-13T16:16:16;25.90;99.90
2721;DHT22;1368;49.484;11.112;2022-09-13T16:18:42;25.70;99.90
2721;DHT22;1368;49.484;11.112;2022-09-13T16:21:07;25.60;99.90
2721;DHT22;1368;49.484;11.112;2022-09-13T16:23:33;25.50;99.90
2721;DHT22;1368;49.484;11.112;2022-09-13T16:25:59;25.20;99.90
2721;DHT22;1368;49.484;11.112;2022-09-13T16:28:25;25.10;99.90
2721;DHT22;1368;49.484;11.112;2022-09-13T16:30:51;25.00;99.90
2721;DHT22;1368;49.484;11.112;2022-09-13T16:33:18;25.10;99.90
2721;DHT22;1368;49.484;11.112;2022-09-13T16:35:44;25.10;99.90
2721;DHT22;1368;49.484;11.112;2022-09-13T16:38:11;25.10;99.90
2721;DHT22;1368;49.484;11.112;2022-09-13T16:40:40;25.00;99.90
2721;DHT22;1368;49.484;11.112;2022-09-13T16:43:06;24.90;99.90
2721;DHT22;1368;49.484;11.112;2022-09-13T16:45:32;24.80;99.90
2721;DHT22;1368;49.484;11.112;2022-09-13T16:47:58;24.70;99.90
2721;DHT22;1368;49.484;11.112;2022-09-13T16:50:23;24.50;99.90
2721;DHT22;1368;49.484;11.112;2022-09-13T16:52:49;24.30;99.90
2721;DHT22;1368;49.484;11.112;2022-09-13T16:55:15;24.30;99.90
2721;DHT22;1368;49.484;11.112;2022-09-13T16:57:41;24.40;99.90
2721;DHT22;1368;49.484;11.112;2022-09-13T17:00:07;24.50;99.90
2721;DHT22;1368;49.484;11.112;2022-09-13T17:02:36;24.40;99.90
2721;DHT22;1368;49.484;11.112;2022-09-13T17:05:02;24.40;99.90
2721;DHT22;1368;49.484;11.112;2022-09-13T17:07:28;24.40;99.90
2721;DHT22;1368;49.484;11.112;2022-09-13T17:09:53;24.50;99.90
2721;DHT22;1368;49.484;11.112;2022-09-13T17:12:19;24.40;99.90
2721;DHT22;1368;49.484;11.112;2022-09-13T17:14:45;24.40;99.90
2721;DHT22;1368;49.484;11.112;2022-09-13T17:17:13;24.30;99.90
2721;DHT22;1368;49.484;11.112;2022-09-13T17:19:40;24.40;99.90
2721;DHT22;1368;49.484;11.112;2022-09-13T17:22:06;24.30;99.90
2721;DHT22;1368;49.484;11.112;2022-09-13T17:24:34;24.10;99.90
2721;DHT22;1368;49.484;11.112;2022-09-13T17:27:02;24.00;99.90
2721;DHT22;1368;49.484;11.112;2022-09-13T17:29:28;24.00;99.90
2721;DHT22;1368;49.484;11.112;2022-09-13T17:31:56;23.90;99.90
2721;DHT22;1368;49.484;11.112;2022-09-13T17:34:22;23.90;99.90
2721;DHT22;1368;49.484;11.112;2022-09-13T17:36:47;23.80;99.90
2721;DHT22;1368;49.484;11.112;2022-09-13T17:39:13;23.80;99.90
2721;DHT22;1368;49.484;11.112;2022-09-13T17:41:39;23.80;99.90
2721;DHT22;1368;49.484;11.112;2022-09-13T17:44:05;23.70;99.90
2721;DHT22;1368;49.484;11.112;2022-09-13T17:46:30;24.10;99.90
2721;DHT22;1368;49.484;11.112;2022-09-13T17:48:57;23.40;99.90
2721;DHT22;1368;49.484;11.112;2022-09-13T17:51:29;23.30;99.90
2721;DHT22;1368;49.484;11.112;2022-09-13T17:54:00;23.30;99.90
2721;DHT22;1368;49.484;11.112;2022-09-13T17:56:29;23.80;99.90
2721;DHT22;1368;49.484;11.112;2022-09-13T17:59:02;23.30;99.90
2721;DHT22;1368;49.484;11.112;2022-09-13T18:01:29;23.70;99.90
2721;DHT22;1368;49.484;11.112;2022-09-13T18:03:54;23.30;99.90
2721;DHT22;1368;49.484;11.112;2022-09-13T18:06:20;23.30;99.90
2721;DHT22;1368;49.484;11.112;2022-09-13T18:08:46;23.30;99.90
2721;DHT22;1368;49.484;11.112;2022-09-13T18:11:13;23.40;99.90
2721;DHT22;1368;49.484;11.112;2022-09-13T18:13:42;23.20;99.90
2721;DHT22;1368;49.484;11.112;2022-09-13T18:16:14;23.20;99.90
2721;DHT22;1368;49.484;11.112;2022-09-13T18:18:40;23.20;99.90
2721;DHT22;1368;49.484;11.112;2022-09-13T18:21:06;23.20;99.90
2721;DHT22;1368;49.484;11.112;2022-09-13T18:23:33;23.20;99.90
2721;DHT22;1368;49.484;11.112;2022-09-13T18:26:03;22.90;99.90
2721;DHT22;1368;49.484;11.112;2022-09-13T18:28:30;22.90;99.90
2721;DHT22;1368;49.484;11.112;2022-09-13T18:30:58;22.90;99.90
2721;DHT22;1368;49.484;11.112;2022-09-13T18:33:24;22.80;99.90
2721;DHT22;1368;49.484;11.112;2022-09-13T18:36:10;22.80;99.90
2721;DHT22;1368;49.484;11.112;2022-09-13T18:38:38;22.80;99.90
2721;DHT22;1368;49.484;11.112;2022-09-13T18:43:35;22.60;99.90
2721;DHT22;1368;49.484;11.112;2022-09-13T18:46:03;22.50;99.90
2721;DHT22;1368;49.484;11.112;2022-09-13T18:48:31;22.30;99.90
2721;DHT22;1368;49.484;11.112;2022-09-13T18:50:57;22.10;99.90
2721;DHT22;1368;49.484;11.112;2022-09-13T18:53:23;22.20;99.90
2721;DHT22;1368;49.484;11.112;2022-09-13T18:55:49;22.20;99.90
2721;DHT22;1368;49.484;11.112;2022-09-13T18:58:15;22.20;99.90
2721;DHT22;1368;49.484;11.112;2022-09-13T19:00:40;22.20;99.90
2721;DHT22;1368;49.484;11.112;2022-09-13T19:03:08;22.00;99.90
2721;DHT22;1368;49.484;11.112;2022-09-13T19:05:35;22.10;99.90
2721;DHT22;1368;49.484;11.112;2022-09-13T19:08:06;22.20;99.90
2721;DHT22;1368;49.484;11.112;2022-09-13T19:10:32;22.30;99.90
2721;DHT22;1368;49.484;11.112;2022-09-13T19:12:58;22.30;99.90
2721;DHT22;1368;49.484;11.112;2022-09-13T19:15:23;22.30;99.90
2721;DHT22;1368;49.484;11.112;2022-09-13T19:17:49;22.60;99.90
2721;DHT22;1368;49.484;11.112;2022-09-13T19:20:14;22.40;99.90
2721;DHT22;1368;49.484;11.112;2022-09-13T19:22:43;22.20;99.90
2721;DHT22;1368;49.484;11.112;2022-09-13T19:25:09;22.10;99.90
2721;DHT22;1368;49.484;11.112;2022-09-13T19:27:34;22.20;99.90
2721;DHT22;1368;49.484;11.112;2022-09-13T19:30:00;22.30;99.90
2721;DHT22;1368;49.484;11.112;2022-09-13T19:32:25;22.30;99.90
2721;DHT22;1368;49.484;11.112;2022-09-13T19:34:51;22.30;99.90
2721;DHT22;1368;49.484;11.112;2022-09-13T19:37:16;22.40;99.90